sensor_id;sensor_type;location;lat;lon;timestamp;pressure;altitude;pressure_sealevel;temperature;humidity
53619;BME280;68717;53.040;18.488;2023-05-07T00:00:07;102036.06;;;5.47;100.00
53619;BME280;68717;53.040;18.488;2023-05-07T00:00:37;102041.44;;;5.46;100.00
53619;BME280;68717;53.040;18.488;2023-05-07T00:01:05;102038.88;;;5.44;100.00
53619;BME280;68717;53.040;18.488;2023-05-07T00:01:19;102035.34;;;5.44;100.00
53619;BME280;68717;53.040;18.488;2023-05-07T00:01:33;102039.78;;;5.43;100.00
53619;BME280;68717;53.040;18.488;2023-05-07T00:01:46;102035.41;;;5.42;100.00
53619;BME280;68717;53.040;18.488;2023-05-07T00:01:59;102045.16;;;5.42;100.00
53619;BME280;68717;53.040;18.488;2023-05-07T00:02:11;102043.47;;;5.41;100.00
53619;BME280;68717;53.040;18.488;2023-05-07T00:02:24;102034.63;;;5.40;100.00
53619;BME280;68717;53.040;18.488;2023-05-07T00:02:37;102040.81;;;5.41;100.00
53619;BME280;68717;53.040;18.488;2023-05-07T00:02:50;102043.47;;;5.41;100.00
53619;BME280;68717;53.040;18.488;2023-05-07T00:03:04;102035.53;;;5.39;100.00
53619;BME280;68717;53.040;18.488;2023-05-07T00:03:18;102037.34;;;5.39;100.00
53619;BME280;68717;53.040;18.488;2023-05-07T00:03:31;102047.97;;;5.39;100.00
53619;BME280;68717;53.040;18.488;2023-05-07T00:03:44;102036.47;;;5.38;100.00
53619;BME280;68717;53.040;18.488;2023-05-07T00:03:57;102048.03;;;5.37;100.00
53619;BME280;68717;53.040;18.488;2023-05-07T00:04:10;102042.72;;;5.37;100.00
53619;BME280;68717;53.040;18.488;2023-05-07T00:04:23;102036.53;;;5.37;100.00
53619;BME280;68717;53.040;18.488;2023-05-07T00:04:37;102038.34;;;5.36;100.00
53619;BME280;68717;53.040;18.488;2023-05-07T00:04:51;102041.91;;;5.35;100.00
53619;BME280;68717;53.040;18.488;2023-05-07T00:05:05;102041.91;;;5.35;100.00
53619;BME280;68717;53.040;18.488;2023-05-07T00:05:18;102035.69;;;5.36;100.00
53619;BME280;68717;53.040;18.488;2023-05-07T00:05:30;102041.06;;;5.35;100.00
53619;BME280;68717;53.040;18.488;2023-05-07T00:05:43;102039.25;;;5.35;100.00
53619;BME280;68717;53.040;18.488;2023-05-07T00:05:56;102038.34;;;5.36;100.00
53619;BME280;68717;53.040;18.488;2023-05-07T00:06:09;102036.59;;;5.35;100.00
53619;BME280;68717;53.040;18.488;2023-05-07T00:06:24;102041.91;;;5.35;100.00
53619;BME280;68717;53.040;18.488;2023-05-07T00:06:39;102041.91;;;5.35;100.00
53619;BME280;68717;53.040;18.488;2023-05-07T00:06:51;102041.91;;;5.35;100.00
53619;BME280;68717;53.040;18.488;2023-05-07T00:07:04;102040.22;;;5.34;100.00
53619;BME280;68717;53.040;18.488;2023-05-07T00:07:17;102039.34;;;5.33;100.00
53619;BME280;68717;53.040;18.488;2023-05-07T00:07:30;102034.88;;;5.34;100.00
53619;BME280;68717;53.040;18.488;2023-05-07T00:07:43;102040.22;;;5.34;100.00
53619;BME280;68717;53.040;18.488;2023-05-07T00:07:56;102040.22;;;5.34;100.00
53619;BME280;68717;53.040;18.488;2023-05-07T00:08:11;102038.47;;;5.33;100.00
53619;BME280;68717;53.040;18.488;2023-05-07T00:08:23;102040.22;;;5.34;100.00
53619;BME280;68717;53.040;18.488;2023-05-07T00:08:36;102040.25;;;5.32;100.00
53619;BME280;68717;53.040;18.488;2023-05-07T00:08:49;102036.69;;;5.33;100.00
53619;BME280;68717;53.040;18.488;2023-05-07T00:09:02;102037.59;;;5.32;100.00
53619;BME280;68717;53.040;18.488;2023-05-07T00:09:16;102036.75;;;5.32;100.00
53619;BME280;68717;53.040;18.488;2023-05-07T00:09:28;102035.91;;;5.31;100.00
53619;BME280;68717;53.040;18.488;2023-05-07T00:09:42;102043.88;;;5.31;100.00
53619;BME280;68717;53.040;18.488;2023-05-07T00:09:54;102040.31;;;5.31;100.00
53619;BME280;68717;53.040;18.488;2023-05-07T00:10:08;102040.31;;;5.31;100.00
53619;BME280;68717;53.040;18.488;2023-05-07T00:10:21;102035.94;;;5.30;100.00
53619;BME280;68717;53.040;18.488;2023-05-07T00:10:33;102034.19;;;5.29;100.00
53619;BME280;68717;53.040;18.488;2023-05-07T00:10:46;102044.84;;;5.29;100.00
53619;BME280;68717;53.040;18.488;2023-05-07T00:10:59;102036.00;;;5.28;100.00
53619;BME280;68717;53.040;18.488;2023-05-07T00:11:11;102039.63;;;5.27;100.00
53619;BME280;68717;53.040;18.488;2023-05-07T00:11:24;102035.22;;;5.26;100.00
53619;BME280;68717;53.040;18.488;2023-05-07T00:11:38;102035.31;;;5.25;100.00
53619;BME280;68717;53.040;18.488;2023-05-07T00:11:50;102038.88;;;5.24;100.00
53619;BME280;68717;53.040;18.488;2023-05-07T00:12:03;102038.00;;;5.23;100.00
53619;BME280;68717;53.040;18.488;2023-05-07T00:12:15;102045.03;;;5.24;100.00
53619;BME280;68717;53.040;18.488;2023-05-07T00:12:28;102043.34;;;5.23;100.00
53619;BME280;68717;53.040;18.488;2023-05-07T00:12:43;102043.38;;;5.22;100.00
53619;BME280;68717;53.040;18.488;2023-05-07T00:12:56;102047.84;;;5.21;100.00
53619;BME280;68717;53.040;18.488;2023-05-07T00:13:10;102043.44;;;5.20;100.00
53619;BME280;68717;53.040;18.488;2023-05-07T00:13:23;102040.88;;;5.19;100.00
53619;BME280;68717;53.040;18.488;2023-05-07T00:13:35;102042.59;;;5.20;100.00
53619;BME280;68717;53.040;18.488;2023-05-07T00:13:48;102038.22;;;5.19;100.00
53619;BME280;68717;53.040;18.488;2023-05-07T00:14:01;102040.03;;;5.18;100.00
53619;BME280;68717;53.040;18.488;2023-05-07T00:14:13;102047.09;;;5.18;100.00
53619;BME280;68717;53.040;18.488;2023-05-07T00:14:26;102038.28;;;5.17;100.00
53619;BME280;68717;53.040;18.488;2023-05-07T00:14:38;102040.06;;;5.17;100.00
53619;BME280;68717;53.040;18.488;2023-05-07T00:14:52;102046.25;;;5.17;100.00
53619;BME280;68717;53.040;18.488;2023-05-07T00:15:06;102033.91;;;5.16;100.00
53619;BME280;68717;53.040;18.488;2023-05-07T00:15:18;102040.13;;;5.15;100.00
53619;BME280;68717;53.040;18.488;2023-05-07T00:15:31;102040.13;;;5.15;100.00
53619;BME280;68717;53.040;18.488;2023-05-07T00:15:44;102042.84;;;5.13;100.00
53619;BME280;68717;53.040;18.488;2023-05-07T00:15:56;102037.53;;;5.13;100.00
53619;BME280;68717;53.040;18.488;2023-05-07T00:16:09;102038.41;;;5.14;100.00
53619;BME280;68717;53.040;18.488;2023-05-07T00:16:23;102040.19;;;5.13;100.00
53619;BME280;68717;53.040;18.488;2023-05-07T00:16:37;102041.13;;;5.12;100.00
53619;BME280;68717;53.040;18.488;2023-05-07T00:16:49;102046.44;;;5.12;100.00
53619;BME280;68717;53.040;18.488;2023-05-07T00:17:02;102046.44;;;5.12;100.00
53619;BME280;68717;53.040;18.488;2023-05-07T00:17:15;102044.72;;;5.11;100.00
53619;BME280;68717;53.040;18.488;2023-05-07T00:17:27;102041.19;;;5.11;100.00
53619;BME280;68717;53.040;18.488;2023-05-07T00:17:40;102044.72;;;5.11;100.00
53619;BME280;68717;53.040;18.488;2023-05-07T00:17:55;102041.19;;;5.11;100.00
53619;BME280;68717;53.040;18.488;2023-05-07T00:18:08;102037.69;;;5.10;100.00
53619;BME280;68717;53.040;18.488;2023-05-07T00:18:20;102044.78;;;5.10;100.00
53619;BME280;68717;53.040;18.488;2023-05-07T00:18:34;102041.28;;;5.09;100.00
53619;BME280;68717;53.040;18.488;2023-05-07T00:18:47;102046.59;;;5.09;100.00
53619;BME280;68717;53.040;18.488;2023-05-07T00:19:00;102042.19;;;5.08;100.00
53619;BME280;68717;53.040;18.488;2023-05-07T00:19:13;102040.47;;;5.07;100.00
53619;BME280;68717;53.040;18.488;2023-05-07T00:19:26;102043.13;;;5.07;100.00
53619;BME280;68717;53.040;18.488;2023-05-07T00:19:39;102038.72;;;5.06;100.00
53619;BME280;68717;53.040;18.488;2023-05-07T00:19:51;102034.38;;;5.05;100.00
53619;BME280;68717;53.040;18.488;2023-05-07T00:20:05;102031.69;;;5.05;100.00
53619;BME280;68717;53.040;18.488;2023-05-07T00:20:18;102043.25;;;5.04;100.00
53619;BME280;68717;53.040;18.488;2023-05-07T00:20:30;102043.25;;;5.04;100.00
53619;BME280;68717;53.040;18.488;2023-05-07T00:20:47;102040.59;;;5.04;100.00
53619;BME280;68717;53.040;18.488;2023-05-07T00:20:59;102040.59;;;5.04;100.00
53619;BME280;68717;53.040;18.488;2023-05-07T00:21:12;102036.22;;;5.03;100.00
53619;BME280;68717;53.040;18.488;2023-05-07T00:21:24;102041.53;;;5.03;100.00
53619;BME280;68717;53.040;18.488;2023-05-07T00:21:39;102038.88;;;5.03;100.00
53619;BME280;68717;53.040;18.488;2023-05-07T00:21:51;102037.94;;;5.04;100.00
53619;BME280;68717;53.040;18.488;2023-05-07T00:22:05;102043.25;;;5.04;100.00
53619;BME280;68717;53.040;18.488;2023-05-07T00:22:18;102043.25;;;5.04;100.00
53619;BME280;68717;53.040;18.488;2023-05-07T00:22:31;102042.38;;;5.04;100.00
53619;BME280;68717;53.040;18.488;2023-05-07T00:22:44;102037.94;;;5.04;100.00
53619;BME280;68717;53.040;18.488;2023-05-07T00:22:57;102037.94;;;5.04;100.00
53619;BME280;68717;53.040;18.488;2023-05-07T00:23:09;102038.78;;;5.05;100.00
53619;BME280;68717;53.040;18.488;2023-05-07T00:23:22;102040.59;;;5.04;100.00
53619;BME280;68717;53.040;18.488;2023-05-07T00:23:35;102037.94;;;5.04;100.00
53619;BME280;68717;53.040;18.488;2023-05-07T00:23:47;102037.94;;;5.04;100.00
53619;BME280;68717;53.040;18.488;2023-05-07T00:24:00;102038.00;;;5.03;100.00
53619;BME280;68717;53.040;18.488;2023-05-07T00:24:13;102035.34;;;5.03;100.00
53619;BME280;68717;53.040;18.488;2023-05-07T00:24:27;102039.78;;;5.02;100.00
53619;BME280;68717;53.040;18.488;2023-05-07T00:24:39;102037.13;;;5.02;100.00
53619;BME280;68717;53.040;18.488;2023-05-07T00:24:52;102035.41;;;5.01;100.00
53619;BME280;68717;53.040;18.488;2023-05-07T00:25:05;102033.69;;;5.00;100.00
53619;BME280;68717;53.040;18.488;2023-05-07T00:25:18;102038.06;;;5.01;100.00
53619;BME280;68717;53.040;18.488;2023-05-07T00:25:31;102038.06;;;5.01;100.00
53619;BME280;68717;53.040;18.488;2023-05-07T00:25:44;102036.34;;;5.00;100.00
53619;BME280;68717;53.040;18.488;2023-05-07T00:25:56;102040.78;;;5.00;100.00
53619;BME280;68717;53.040;18.488;2023-05-07T00:26:10;102037.28;;;4.99;100.00
53619;BME280;68717;53.040;18.488;2023-05-07T00:26:23;102039.94;;;4.99;100.00
53619;BME280;68717;53.040;18.488;2023-05-07T00:26:35;102032.88;;;4.98;100.00
53619;BME280;68717;53.040;18.488;2023-05-07T00:26:48;102040.00;;;4.98;100.00
53619;BME280;68717;53.040;18.488;2023-05-07T00:27:00;102032.88;;;4.98;100.00
53619;BME280;68717;53.040;18.488;2023-05-07T00:27:13;102036.47;;;4.97;100.00
53619;BME280;68717;53.040;18.488;2023-05-07T00:27:25;102046.25;;;4.97;100.00
53619;BME280;68717;53.040;18.488;2023-05-07T00:27:38;102037.38;;;4.96;100.00
53619;BME280;68717;53.040;18.488;2023-05-07T00:27:52;102042.69;;;4.96;100.00
53619;BME280;68717;53.040;18.488;2023-05-07T00:28:04;102040.13;;;4.95;100.00
53619;BME280;68717;53.040;18.488;2023-05-07T00:28:17;102037.47;;;4.95;100.00
53619;BME280;68717;53.040;18.488;2023-05-07T00:28:29;102032.22;;;4.93;100.00
53619;BME280;68717;53.040;18.488;2023-05-07T00:28:42;102031.28;;;4.94;100.00
53619;BME280;68717;53.040;18.488;2023-05-07T00:28:54;102036.69;;;4.93;100.00
53619;BME280;68717;53.040;18.488;2023-05-07T00:29:08;102037.53;;;4.93;100.00
53619;BME280;68717;53.040;18.488;2023-05-07T00:29:20;102036.69;;;4.93;100.00
53619;BME280;68717;53.040;18.488;2023-05-07T00:29:33;102033.16;;;4.92;100.00
53619;BME280;68717;53.040;18.488;2023-05-07T00:29:46;102037.59;;;4.91;100.00
53619;BME280;68717;53.040;18.488;2023-05-07T00:29:58;102033.16;;;4.92;100.00
53619;BME280;68717;53.040;18.488;2023-05-07T00:30:11;102038.47;;;4.92;100.00
53619;BME280;68717;53.040;18.488;2023-05-07T00:30:24;102036.72;;;4.91;100.00
53619;BME280;68717;53.040;18.488;2023-05-07T00:30:37;102035.00;;;4.90;100.00
53619;BME280;68717;53.040;18.488;2023-05-07T00:30:50;102030.63;;;4.89;100.00
53619;BME280;68717;53.040;18.488;2023-05-07T00:31:03;102038.59;;;4.89;100.00
53619;BME280;68717;53.040;18.488;2023-05-07T00:31:15;102036.88;;;4.88;100.00
53619;BME280;68717;53.040;18.488;2023-05-07T00:31:28;102033.31;;;4.87;100.00
53619;BME280;68717;53.040;18.488;2023-05-07T00:31:42;102036.88;;;4.88;100.00
53619;BME280;68717;53.040;18.488;2023-05-07T00:31:55;102040.44;;;4.87;100.00
53619;BME280;68717;53.040;18.488;2023-05-07T00:32:08;102042.25;;;4.86;100.00
53619;BME280;68717;53.040;18.488;2023-05-07T00:32:21;102035.19;;;4.85;100.00
53619;BME280;68717;53.040;18.488;2023-05-07T00:32:34;102044.03;;;4.86;100.00
53619;BME280;68717;53.040;18.488;2023-05-07T00:32:47;102035.19;;;4.85;100.00
53619;BME280;68717;53.040;18.488;2023-05-07T00:33:01;102034.31;;;4.85;100.00
53619;BME280;68717;53.040;18.488;2023-05-07T00:33:14;102034.31;;;4.85;100.00
53619;BME280;68717;53.040;18.488;2023-05-07T00:33:26;102041.44;;;4.84;100.00
53619;BME280;68717;53.040;18.488;2023-05-07T00:33:39;102043.25;;;4.84;100.00
53619;BME280;68717;53.040;18.488;2023-05-07T00:33:52;102036.97;;;4.85;100.00
53619;BME280;68717;53.040;18.488;2023-05-07T00:34:05;102039.63;;;4.85;100.00
53619;BME280;68717;53.040;18.488;2023-05-07T00:34:19;102040.50;;;4.85;100.00
53619;BME280;68717;53.040;18.488;2023-05-07T00:34:32;102042.28;;;4.85;100.00
53619;BME280;68717;53.040;18.488;2023-05-07T00:34:45;102036.97;;;4.85;100.00
53619;BME280;68717;53.040;18.488;2023-05-07T00:34:57;102039.63;;;4.85;100.00
53619;BME280;68717;53.040;18.488;2023-05-07T00:35:10;102038.72;;;4.86;100.00
53619;BME280;68717;53.040;18.488;2023-05-07T00:35:24;102044.03;;;4.86;100.00
53619;BME280;68717;53.040;18.488;2023-05-07T00:35:36;102049.34;;;4.86;100.00
53619;BME280;68717;53.040;18.488;2023-05-07T00:35:49;102038.72;;;4.86;100.00
53619;BME280;68717;53.040;18.488;2023-05-07T00:36:02;102042.28;;;4.85;100.00
53619;BME280;68717;53.040;18.488;2023-05-07T00:36:15;102038.72;;;4.86;100.00
53619;BME280;68717;53.040;18.488;2023-05-07T00:36:27;102050.25;;;4.85;100.00
53619;BME280;68717;53.040;18.488;2023-05-07T00:36:42;102044.16;;;4.83;100.00
53619;BME280;68717;53.040;18.488;2023-05-07T00:36:54;102048.56;;;4.84;100.00
53619;BME280;68717;53.040;18.488;2023-05-07T00:37:07;102045.03;;;4.83;100.00
53619;BME280;68717;53.040;18.488;2023-05-07T00:37:21;102046.81;;;4.83;100.00
53619;BME280;68717;53.040;18.488;2023-05-07T00:37:33;102049.47;;;4.83;100.00
53619;BME280;68717;53.040;18.488;2023-05-07T00:37:46;102045.09;;;4.82;100.00
53619;BME280;68717;53.040;18.488;2023-05-07T00:37:58;102045.09;;;4.82;100.00
53619;BME280;68717;53.040;18.488;2023-05-07T00:38:11;102045.09;;;4.82;100.00
53619;BME280;68717;53.040;18.488;2023-05-07T00:38:25;102042.44;;;4.82;100.00
53619;BME280;68717;53.040;18.488;2023-05-07T00:38:37;102040.69;;;4.81;100.00
53619;BME280;68717;53.040;18.488;2023-05-07T00:38:50;102047.75;;;4.82;100.00
53619;BME280;68717;53.040;18.488;2023-05-07T00:39:02;102040.69;;;4.81;100.00
53619;BME280;68717;53.040;18.488;2023-05-07T00:39:16;102039.84;;;4.80;100.00
53619;BME280;68717;53.040;18.488;2023-05-07T00:39:28;102044.28;;;4.80;100.00
53619;BME280;68717;53.040;18.488;2023-05-07T00:39:41;102042.50;;;4.80;100.00
53619;BME280;68717;53.040;18.488;2023-05-07T00:39:53;102040.78;;;4.79;100.00
53619;BME280;68717;53.040;18.488;2023-05-07T00:40:08;102045.19;;;4.79;100.00
53619;BME280;68717;53.040;18.488;2023-05-07T00:40:21;102047.00;;;4.78;100.00
53619;BME280;68717;53.040;18.488;2023-05-07T00:40:34;102049.66;;;4.78;100.00
53619;BME280;68717;53.040;18.488;2023-05-07T00:40:47;102050.59;;;4.77;100.00
53619;BME280;68717;53.040;18.488;2023-05-07T00:40:59;102041.75;;;4.77;100.00
53619;BME280;68717;53.040;18.488;2023-05-07T00:41:12;102041.75;;;4.77;100.00
53619;BME280;68717;53.040;18.488;2023-05-07T00:41:25;102049.72;;;4.77;100.00
53619;BME280;68717;53.040;18.488;2023-05-07T00:41:38;102044.41;;;4.77;100.00
53619;BME280;68717;53.040;18.488;2023-05-07T00:41:51;102048.00;;;4.76;100.00
53619;BME280;68717;53.040;18.488;2023-05-07T00:42:03;102047.06;;;4.77;100.00
53619;BME280;68717;53.040;18.488;2023-05-07T00:42:16;102053.31;;;4.76;100.00
53619;BME280;68717;53.040;18.488;2023-05-07T00:42:29;102047.13;;;4.75;100.00
53619;BME280;68717;53.040;18.488;2023-05-07T00:42:41;102048.06;;;4.74;100.00
53619;BME280;68717;53.040;18.488;2023-05-07T00:42:59;102049.91;;;4.72;100.00
53619;BME280;68717;53.040;18.488;2023-05-07T00:43:13;102039.38;;;4.70;100.00
53619;BME280;68717;53.040;18.488;2023-05-07T00:43:25;102054.38;;;4.71;100.00
53619;BME280;68717;53.040;18.488;2023-05-07T00:43:39;102050.00;;;4.70;100.00
53619;BME280;68717;53.040;18.488;2023-05-07T00:43:52;102050.00;;;4.70;100.00
53619;BME280;68717;53.040;18.488;2023-05-07T00:44:05;102057.16;;;4.68;100.00
53619;BME280;68717;53.040;18.488;2023-05-07T00:44:17;102051.84;;;4.68;100.00
53619;BME280;68717;53.040;18.488;2023-05-07T00:44:31;102059.81;;;4.68;100.00
53619;BME280;68717;53.040;18.488;2023-05-07T00:44:43;102051.84;;;4.68;100.00
53619;BME280;68717;53.040;18.488;2023-05-07T00:44:56;102051.84;;;4.68;100.00
53619;BME280;68717;53.040;18.488;2023-05-07T00:45:09;102047.44;;;4.67;100.00
53619;BME280;68717;53.040;18.488;2023-05-07T00:45:23;102055.41;;;4.67;100.00
53619;BME280;68717;53.040;18.488;2023-05-07T00:45:38;102050.09;;;4.67;100.00
53619;BME280;68717;53.040;18.488;2023-05-07T00:45:51;102051.03;;;4.66;100.00
53619;BME280;68717;53.040;18.488;2023-05-07T00:46:04;102052.75;;;4.67;100.00
53619;BME280;68717;53.040;18.488;2023-05-07T00:46:20;102048.38;;;4.66;100.00
53619;BME280;68717;53.040;18.488;2023-05-07T00:46:33;102045.72;;;4.66;100.00
53619;BME280;68717;53.040;18.488;2023-05-07T00:46:48;102043.94;;;4.67;100.00
53619;BME280;68717;53.040;18.488;2023-05-07T00:47:03;102045.63;;;4.68;100.00
53619;BME280;68717;53.040;18.488;2023-05-07T00:47:17;102048.38;;;4.66;100.00
53619;BME280;68717;53.040;18.488;2023-05-07T00:47:30;102050.09;;;4.67;100.00
53619;BME280;68717;53.040;18.488;2023-05-07T00:47:44;102055.41;;;4.67;100.00
53619;BME280;68717;53.040;18.488;2023-05-07T00:47:59;102051.03;;;4.66;100.00
53619;BME280;68717;53.040;18.488;2023-05-07T00:48:12;102051.94;;;4.65;100.00
53619;BME280;68717;53.040;18.488;2023-05-07T00:48:26;102051.94;;;4.65;100.00
53619;BME280;68717;53.040;18.488;2023-05-07T00:48:39;102050.25;;;4.64;100.00
53619;BME280;68717;53.040;18.488;2023-05-07T00:48:53;102055.59;;;4.63;100.00
53619;BME280;68717;53.040;18.488;2023-05-07T00:49:06;102050.34;;;4.61;100.00
53619;BME280;68717;53.040;18.488;2023-05-07T00:49:19;102051.28;;;4.60;100.00
53619;BME280;68717;53.040;18.488;2023-05-07T00:49:37;102053.09;;;4.60;100.00
53619;BME280;68717;53.040;18.488;2023-05-07T00:49:50;102056.66;;;4.59;100.00
53619;BME280;68717;53.040;18.488;2023-05-07T00:50:05;102055.78;;;4.58;100.00
53619;BME280;68717;53.040;18.488;2023-05-07T00:50:17;102061.09;;;4.58;100.00
53619;BME280;68717;53.040;18.488;2023-05-07T00:50:32;102058.44;;;4.58;100.00
53619;BME280;68717;53.040;18.488;2023-05-07T00:50:46;102055.78;;;4.58;100.00
53619;BME280;68717;53.040;18.488;2023-05-07T00:50:59;102055.78;;;4.58;100.00
53619;BME280;68717;53.040;18.488;2023-05-07T00:51:12;102048.75;;;4.57;100.00
53619;BME280;68717;53.040;18.488;2023-05-07T00:51:25;102057.59;;;4.58;100.00
53619;BME280;68717;53.040;18.488;2023-05-07T00:51:39;102048.75;;;4.57;100.00
53619;BME280;68717;53.040;18.488;2023-05-07T00:51:52;102059.38;;;4.57;100.00
53619;BME280;68717;53.040;18.488;2023-05-07T00:52:06;102055.78;;;4.58;100.00
53619;BME280;68717;53.040;18.488;2023-05-07T00:52:21;102059.38;;;4.57;100.00
53619;BME280;68717;53.040;18.488;2023-05-07T00:52:37;102055.78;;;4.58;100.00
53619;BME280;68717;53.040;18.488;2023-05-07T00:52:49;102061.09;;;4.58;100.00
53619;BME280;68717;53.040;18.488;2023-05-07T00:53:02;102053.13;;;4.58;100.00
53619;BME280;68717;53.040;18.488;2023-05-07T00:53:16;102050.47;;;4.58;100.00
53619;BME280;68717;53.040;18.488;2023-05-07T00:53:29;102061.97;;;4.59;100.00
53619;BME280;68717;53.040;18.488;2023-05-07T00:53:42;102057.50;;;4.59;100.00
53619;BME280;68717;53.040;18.488;2023-05-07T00:53:56;102063.75;;;4.58;100.00
53619;BME280;68717;53.040;18.488;2023-05-07T00:54:09;102055.78;;;4.58;100.00
53619;BME280;68717;53.040;18.488;2023-05-07T00:54:22;102061.97;;;4.59;100.00
53619;BME280;68717;53.040;18.488;2023-05-07T00:54:35;102063.75;;;4.58;100.00
53619;BME280;68717;53.040;18.488;2023-05-07T00:54:48;102061.97;;;4.59;100.00
53619;BME280;68717;53.040;18.488;2023-05-07T00:55:04;102060.25;;;4.58;100.00
53619;BME280;68717;53.040;18.488;2023-05-07T00:55:17;102060.31;;;4.56;100.00
53619;BME280;68717;53.040;18.488;2023-05-07T00:55:30;102057.66;;;4.56;100.00
53619;BME280;68717;53.040;18.488;2023-05-07T00:55:43;102061.25;;;4.55;100.00
53619;BME280;68717;53.040;18.488;2023-05-07T00:55:56;102061.25;;;4.55;100.00
53619;BME280;68717;53.040;18.488;2023-05-07T00:56:09;102062.09;;;4.56;100.00
53619;BME280;68717;53.040;18.488;2023-05-07T00:56:22;102055.94;;;4.55;100.00
53619;BME280;68717;53.040;18.488;2023-05-07T00:56:36;102070.91;;;4.56;100.00
53619;BME280;68717;53.040;18.488;2023-05-07T00:56:48;102065.66;;;4.55;100.00
53619;BME280;68717;53.040;18.488;2023-05-07T00:57:02;102066.56;;;4.55;100.00
53619;BME280;68717;53.040;18.488;2023-05-07T00:57:15;102059.50;;;4.54;100.00
53619;BME280;68717;53.040;18.488;2023-05-07T00:57:29;102065.75;;;4.53;100.00
53619;BME280;68717;53.040;18.488;2023-05-07T00:57:42;102059.63;;;4.51;100.00
53619;BME280;68717;53.040;18.488;2023-05-07T00:57:55;102061.41;;;4.50;100.00
53619;BME280;68717;53.040;18.488;2023-05-07T00:58:08;102061.41;;;4.50;100.00
53619;BME280;68717;53.040;18.488;2023-05-07T00:58:21;102058.81;;;4.49;100.00
53619;BME280;68717;53.040;18.488;2023-05-07T00:58:34;102061.47;;;4.49;100.00
53619;BME280;68717;53.040;18.488;2023-05-07T00:58:47;102065.03;;;4.48;100.00
53619;BME280;68717;53.040;18.488;2023-05-07T00:59:01;102059.72;;;4.48;100.00
53619;BME280;68717;53.040;18.488;2023-05-07T00:59:14;102066.00;;;4.47;100.00
53619;BME280;68717;53.040;18.488;2023-05-07T00:59:27;102061.59;;;4.46;100.00
53619;BME280;68717;53.040;18.488;2023-05-07T00:59:40;102065.19;;;4.45;100.00
53619;BME280;68717;53.040;18.488;2023-05-07T00:59:53;102059.00;;;4.44;100.00
53619;BME280;68717;53.040;18.488;2023-05-07T01:00:07;102064.38;;;4.43;100.00
53619;BME280;68717;53.040;18.488;2023-05-07T01:00:21;102059.91;;;4.43;100.00
53619;BME280;68717;53.040;18.488;2023-05-07T01:00:34;102066.97;;;4.44;100.00
53619;BME280;68717;53.040;18.488;2023-05-07T01:00:46;102066.09;;;4.44;100.00
53619;BME280;68717;53.040;18.488;2023-05-07T01:01:00;102062.56;;;4.43;100.00
53619;BME280;68717;53.040;18.488;2023-05-07T01:01:13;102068.75;;;4.44;100.00
53619;BME280;68717;53.040;18.488;2023-05-07T01:01:28;102067.88;;;4.43;100.00
53619;BME280;68717;53.040;18.488;2023-05-07T01:01:41;102065.22;;;4.43;100.00
53619;BME280;68717;53.040;18.488;2023-05-07T01:01:55;102066.09;;;4.44;100.00
53619;BME280;68717;53.040;18.488;2023-05-07T01:02:08;102062.63;;;4.42;100.00
53619;BME280;68717;53.040;18.488;2023-05-07T01:02:21;102056.47;;;4.41;100.00
53619;BME280;68717;53.040;18.488;2023-05-07T01:02:34;102063.56;;;4.41;100.00
53619;BME280;68717;53.040;18.488;2023-05-07T01:02:47;102061.84;;;4.40;100.00
53619;BME280;68717;53.040;18.488;2023-05-07T01:03:00;102060.06;;;4.40;100.00
53619;BME280;68717;53.040;18.488;2023-05-07T01:03:14;102067.16;;;4.40;100.00
53619;BME280;68717;53.040;18.488;2023-05-07T01:03:27;102065.41;;;4.39;100.00
53619;BME280;68717;53.040;18.488;2023-05-07T01:03:40;102065.41;;;4.39;100.00
53619;BME280;68717;53.040;18.488;2023-05-07T01:03:54;102060.09;;;4.39;100.00
53619;BME280;68717;53.040;18.488;2023-05-07T01:04:07;102061.06;;;4.38;100.00
53619;BME280;68717;53.040;18.488;2023-05-07T01:04:20;102073.38;;;4.39;100.00
53619;BME280;68717;53.040;18.488;2023-05-07T01:04:34;102058.41;;;4.38;100.00
53619;BME280;68717;53.040;18.488;2023-05-07T01:04:46;102061.91;;;4.38;100.00
53619;BME280;68717;53.040;18.488;2023-05-07T01:05:00;102058.41;;;4.38;100.00
53619;BME280;68717;53.040;18.488;2023-05-07T01:05:15;102061.97;;;4.37;100.00
53619;BME280;68717;53.040;18.488;2023-05-07T01:05:29;102061.97;;;4.37;100.00
53619;BME280;68717;53.040;18.488;2023-05-07T01:05:44;102060.25;;;4.36;100.00
53619;BME280;68717;53.040;18.488;2023-05-07T01:05:59;102062.00;;;4.35;100.00
53619;BME280;68717;53.040;18.488;2023-05-07T01:06:13;102069.13;;;4.35;100.00
53619;BME280;68717;53.040;18.488;2023-05-07T01:06:30;102064.75;;;4.34;100.00
53619;BME280;68717;53.040;18.488;2023-05-07T01:06:46;102066.50;;;4.33;100.00
53619;BME280;68717;53.040;18.488;2023-05-07T01:07:01;102068.31;;;4.33;100.00
53619;BME280;68717;53.040;18.488;2023-05-07T01:07:14;102062.13;;;4.32;100.00
53619;BME280;68717;53.040;18.488;2023-05-07T01:07:27;102060.34;;;4.33;100.00
53619;BME280;68717;53.040;18.488;2023-05-07T01:07:41;102065.66;;;4.33;100.00
53619;BME280;68717;53.040;18.488;2023-05-07T01:07:55;102062.13;;;4.32;100.00
53619;BME280;68717;53.040;18.488;2023-05-07T01:08:09;102063.00;;;4.33;100.00
53619;BME280;68717;53.040;18.488;2023-05-07T01:08:23;102066.59;;;4.32;100.00
53619;BME280;68717;53.040;18.488;2023-05-07T01:08:39;102065.66;;;4.33;100.00
53619;BME280;68717;53.040;18.488;2023-05-07T01:08:52;102074.47;;;4.33;100.00